createdAt,value
2023-05-10T00:00:18.739Z,94551.00
2023-05-10T00:01:18.476Z,94549.00
2023-05-10T00:02:18.510Z,94549.00
2023-05-10T00:03:18.601Z,94545.00
2023-05-10T00:04:18.743Z,94549.00
2023-05-10T00:05:18.595Z,94547.00
2023-05-10T00:06:18.624Z,94549.00
2023-05-10T00:07:18.690Z,94545.00
2023-05-10T00:08:18.724Z,94545.00
2023-05-10T00:09:18.744Z,94545.00
2023-05-10T00:10:18.902Z,94545.00
2023-05-10T00:11:20.371Z,94547.00
2023-05-10T00:12:18.854Z,94549.00
2023-05-10T00:13:18.939Z,94549.00
2023-05-10T00:14:18.879Z,94547.00
2023-05-10T00:15:18.879Z,94553.00
2023-05-10T00:16:18.898Z,94553.00
2023-05-10T00:17:18.889Z,94547.00
2023-05-10T00:18:18.900Z,94549.00
2023-05-10T00:19:18.909Z,94549.00
2023-05-10T00:20:19.167Z,94551.00
2023-05-10T00:21:18.943Z,94553.00
2023-05-10T00:22:18.963Z,94553.00
2023-05-10T00:23:18.953Z,94553.00
2023-05-10T00:24:18.971Z,94553.00
2023-05-10T00:25:18.994Z,94555.00
2023-05-10T00:26:19.007Z,94555.00
2023-05-10T00:27:19.001Z,94553.00
2023-05-10T00:28:19.044Z,94553.00
2023-05-10T00:29:19.036Z,94553.00
2023-05-10T00:30:19.291Z,94555.00
2023-05-10T00:31:19.041Z,94557.00
2023-05-10T00:32:19.209Z,94559.00
2023-05-10T00:33:19.053Z,94561.00
2023-05-10T00:34:19.763Z,94555.00
2023-05-10T00:35:19.044Z,94557.00
2023-05-10T00:36:19.050Z,94557.00
2023-05-10T00:37:19.064Z,94555.00
2023-05-10T00:38:19.082Z,94557.00
2023-05-10T00:39:19.117Z,94553.00
2023-05-10T00:40:19.266Z,94555.00
2023-05-10T00:41:19.095Z,94555.00
2023-05-10T00:42:19.092Z,94553.00
2023-05-10T00:43:19.112Z,94555.00
2023-05-10T00:44:19.109Z,94555.00
2023-05-10T00:45:19.150Z,94553.00
2023-05-10T00:46:19.185Z,94555.00
2023-05-10T00:47:19.172Z,94557.00
2023-05-10T00:48:19.225Z,94557.00
2023-05-10T00:49:19.264Z,94557.00
2023-05-10T00:50:19.326Z,94559.00
2023-05-10T00:51:19.376Z,94555.00
2023-05-10T00:52:19.420Z,94555.00
2023-05-10T00:53:19.491Z,94557.00
2023-05-10T00:54:19.519Z,94557.00
2023-05-10T00:55:19.564Z,94555.00
2023-05-10T00:56:19.613Z,94555.00
2023-05-10T00:57:19.664Z,94555.00
2023-05-10T00:58:19.717Z,94555.00
2023-05-10T00:59:19.768Z,94553.00
2023-05-10T01:00:19.813Z,94553.00
2023-05-10T01:01:19.986Z,94553.00
2023-05-10T01:02:20.002Z,94551.00
2023-05-10T01:03:20.138Z,94551.00
2023-05-10T01:04:20.024Z,94553.00
2023-05-10T01:05:20.125Z,94553.00
2023-05-10T01:06:20.137Z,94553.00
2023-05-10T01:07:20.178Z,94553.00
2023-05-10T01:08:20.246Z,94553.00
2023-05-10T01:09:20.283Z,94555.00
2023-05-10T01:10:20.332Z,94555.00
2023-05-10T01:11:20.394Z,94557.00
2023-05-10T01:12:20.505Z,94557.00
2023-05-10T01:13:20.551Z,94559.00
2023-05-10T01:14:20.547Z,94559.00
2023-05-10T01:15:20.604Z,94563.00
2023-05-10T01:16:20.714Z,94561.00
2023-05-10T01:17:20.753Z,94563.00
2023-05-10T01:18:20.764Z,94563.00
2023-05-10T01:19:20.807Z,94565.00
2023-05-10T01:20:20.859Z,94565.00
2023-05-10T01:21:20.915Z,94567.00
2023-05-10T01:22:20.978Z,94567.00
2023-05-10T01:23:21.021Z,94569.00
2023-05-10T01:24:21.068Z,94573.00
2023-05-10T01:25:21.119Z,94573.00
2023-05-10T01:26:21.169Z,94573.00
2023-05-10T01:27:21.214Z,94575.00
2023-05-10T01:28:21.265Z,94575.00
2023-05-10T01:29:21.314Z,94577.00
2023-05-10T01:31:20.456Z,94579.00
2023-05-10T01:32:21.464Z,94579.00
2023-05-10T01:33:21.573Z,94579.00
2023-05-10T01:34:21.570Z,94579.00
2023-05-10T01:35:21.613Z,94575.00
2023-05-10T01:36:21.672Z,94577.00
2023-05-10T01:37:21.731Z,94577.00
2023-05-10T01:38:21.779Z,94575.00
2023-05-10T01:39:21.831Z,94573.00
2023-05-10T01:40:21.885Z,94573.00
2023-05-10T01:41:21.952Z,94573.00
2023-05-10T01:42:21.978Z,94573.00
2023-05-10T01:43:22.032Z,94575.00
2023-05-10T01:44:22.090Z,94579.00
2023-05-10T01:45:22.138Z,94575.00
2023-05-10T01:46:22.218Z,94575.00
2023-05-10T01:47:22.252Z,94575.00
2023-05-10T01:48:22.309Z,94573.00
2023-05-10T01:49:22.392Z,94575.00
2023-05-10T01:50:22.422Z,94575.00
2023-05-10T01:51:22.461Z,94571.00
2023-05-10T01:52:22.554Z,94569.00
2023-05-10T01:53:22.586Z,94565.00
2023-05-10T01:54:22.670Z,94565.00
2023-05-10T01:55:22.676Z,94567.00
2023-05-10T01:56:22.711Z,94567.00
2023-05-10T01:57:22.766Z,94569.00
2023-05-10T01:58:22.811Z,94567.00
2023-05-10T01:59:22.871Z,94567.00
2023-05-10T02:00:22.920Z,94565.00
2023-05-10T02:01:23.036Z,94565.00
2023-05-10T02:02:23.048Z,94567.00
2023-05-10T02:03:23.128Z,94565.00
2023-05-10T02:04:23.149Z,94565.00
2023-05-10T02:05:23.223Z,94565.00
2023-05-10T02:06:23.300Z,94565.00
2023-05-10T02:07:23.296Z,94563.00
2023-05-10T02:08:23.367Z,94565.00
2023-05-10T02:09:23.404Z,94567.00
2023-05-10T02:10:23.463Z,94565.00
2023-05-10T02:11:23.530Z,94565.00
2023-05-10T02:12:23.578Z,94565.00
2023-05-10T02:13:23.675Z,94565.00
2023-05-10T02:14:23.674Z,94567.00
2023-05-10T02:15:23.729Z,94567.00
2023-05-10T02:16:23.856Z,94569.00
2023-05-10T02:17:23.853Z,94569.00
2023-05-10T02:18:23.870Z,94569.00
2023-05-10T02:19:23.930Z,94569.00
2023-05-10T02:20:23.975Z,94567.00
2023-05-10T02:21:24.066Z,94569.00
2023-05-10T02:22:24.085Z,94569.00
2023-05-10T02:23:24.149Z,94569.00
2023-05-10T02:24:24.187Z,94569.00
2023-05-10T02:25:24.260Z,94571.00
2023-05-10T02:26:24.301Z,94569.00
2023-05-10T02:27:24.356Z,94571.00
2023-05-10T02:28:24.397Z,94571.00
2023-05-10T02:29:24.444Z,94567.00
2023-05-10T02:30:24.498Z,94569.00
2023-05-10T02:31:24.551Z,94569.00
2023-05-10T02:32:24.638Z,94569.00
2023-05-10T02:33:24.655Z,94571.00
2023-05-10T02:34:24.700Z,94571.00
2023-05-10T02:35:24.809Z,94571.00
2023-05-10T02:36:24.811Z,94573.00
2023-05-10T02:37:24.981Z,94573.00
2023-05-10T02:38:24.927Z,94573.00
2023-05-10T02:39:24.969Z,94573.00
2023-05-10T02:40:26.801Z,94573.00
2023-05-10T02:41:25.033Z,94571.00
2023-05-10T02:42:25.036Z,94573.00
2023-05-10T02:43:25.048Z,94575.00
2023-05-10T02:44:25.067Z,94575.00
2023-05-10T02:45:25.071Z,94577.00
2023-05-10T02:46:25.113Z,94577.00
2023-05-10T02:47:25.065Z,94577.00
2023-05-10T02:48:25.072Z,94577.00
2023-05-10T02:49:25.088Z,94577.00
2023-05-10T02:50:25.091Z,94579.00
2023-05-10T02:51:25.103Z,94577.00
2023-05-10T02:52:25.134Z,94577.00
2023-05-10T02:53:25.146Z,94579.00
2023-05-10T02:54:25.129Z,94581.00
2023-05-10T02:55:25.140Z,94579.00
2023-05-10T02:56:25.139Z,94581.00
2023-05-10T02:57:25.153Z,94583.00
2023-05-10T02:58:25.156Z,94583.00
2023-05-10T02:59:25.182Z,94583.00
2023-05-10T03:00:25.168Z,94585.00
2023-05-10T03:01:25.197Z,94587.00
2023-05-10T03:02:25.246Z,94588.00
2023-05-10T03:03:25.203Z,94588.00
2023-05-10T03:04:25.286Z,94588.00
2023-05-10T03:05:25.216Z,94590.00
2023-05-10T03:06:25.214Z,94592.00
2023-05-10T03:07:25.240Z,94592.00
2023-05-10T03:08:25.221Z,94592.00
2023-05-10T03:09:25.247Z,94590.00
2023-05-10T03:10:25.224Z,94590.00
2023-05-10T03:11:25.245Z,94594.00
2023-05-10T03:12:25.276Z,94590.00
2023-05-10T03:13:25.367Z,94590.00
2023-05-10T03:14:25.392Z,94592.00
2023-05-10T03:15:25.467Z,94594.00
2023-05-10T03:16:25.543Z,94590.00
2023-05-10T03:17:25.620Z,94590.00
2023-05-10T03:18:25.610Z,94588.00
2023-05-10T03:19:25.679Z,94590.00
2023-05-10T03:20:25.717Z,94588.00
2023-05-10T03:21:25.770Z,94588.00
2023-05-10T03:22:25.842Z,94587.00
2023-05-10T03:23:25.887Z,94587.00
2023-05-10T03:24:25.960Z,94587.00
2023-05-10T03:25:26.032Z,94588.00
2023-05-10T03:26:26.076Z,94588.00
2023-05-10T03:27:26.135Z,94588.00
2023-05-10T03:28:26.180Z,94592.00
2023-05-10T03:29:26.230Z,94592.00
2023-05-10T03:30:26.307Z,94592.00
2023-05-10T03:31:26.399Z,94592.00
2023-05-10T03:32:26.441Z,94594.00
2023-05-10T03:33:26.461Z,94592.00
2023-05-10T03:34:26.519Z,94594.00
2023-05-10T03:35:26.577Z,94594.00
2023-05-10T03:36:26.627Z,94592.00
2023-05-10T03:37:26.694Z,94596.00
2023-05-10T03:38:28.366Z,94596.00
2023-05-10T03:39:26.749Z,94596.00
2023-05-10T03:40:26.760Z,94596.00
2023-05-10T03:41:26.786Z,94596.00
2023-05-10T03:42:26.772Z,94596.00
2023-05-10T03:43:26.782Z,94596.00
2023-05-10T03:44:26.791Z,94598.00
2023-05-10T03:45:26.804Z,94598.00
2023-05-10T03:46:26.860Z,94598.00
2023-05-10T03:47:26.813Z,94598.00
2023-05-10T03:48:26.797Z,94600.00
2023-05-10T03:49:26.807Z,94602.00
2023-05-10T03:50:26.801Z,94602.00
2023-05-10T03:51:26.816Z,94602.00
2023-05-10T03:52:26.818Z,94602.00
2023-05-10T03:53:26.818Z,94604.00
2023-05-10T03:54:26.839Z,94606.00
2023-05-10T03:55:26.826Z,94606.00
2023-05-10T03:56:26.882Z,94606.00
2023-05-10T03:57:26.992Z,94608.00
2023-05-10T03:58:27.010Z,94610.00
2023-05-10T03:59:27.076Z,94610.00
2023-05-10T04:00:27.130Z,94608.00
2023-05-10T04:01:27.192Z,94608.00
2023-05-10T04:02:27.351Z,94610.00
2023-05-10T04:03:27.349Z,94608.00
2023-05-10T04:04:27.374Z,94608.00
2023-05-10T04:05:27.439Z,94608.00
2023-05-10T04:06:27.550Z,94610.00
2023-05-10T04:07:27.571Z,94610.00
2023-05-10T04:08:27.620Z,94608.00
2023-05-10T04:09:27.676Z,94608.00
2023-05-10T04:10:27.732Z,94610.00
2023-05-10T04:11:27.796Z,94608.00
2023-05-10T04:12:27.853Z,94608.00
2023-05-10T04:13:28.006Z,94610.00
2023-05-10T04:14:27.984Z,94610.00
2023-05-10T04:15:28.059Z,94612.00
2023-05-10T04:16:28.137Z,94614.00
2023-05-10T04:17:28.191Z,94616.00
2023-05-10T04:18:28.223Z,94616.00
2023-05-10T04:19:28.266Z,94618.00
2023-05-10T04:20:28.326Z,94618.00
2023-05-10T04:21:28.404Z,94620.00
2023-05-10T04:22:28.448Z,94622.00
2023-05-10T04:23:28.499Z,94622.00
2023-05-10T04:24:28.561Z,94620.00
2023-05-10T04:25:28.616Z,94622.00
2023-05-10T04:26:28.679Z,94624.00
2023-05-10T04:27:28.739Z,94624.00
2023-05-10T04:28:28.835Z,94624.00
2023-05-10T04:29:28.890Z,94626.00
2023-05-10T04:30:28.907Z,94633.00
2023-05-10T04:31:29.074Z,94633.00
2023-05-10T04:32:29.074Z,94635.00
2023-05-10T04:33:29.124Z,94635.00
2023-05-10T04:34:29.166Z,94635.00
2023-05-10T04:35:29.206Z,94637.00
2023-05-10T04:36:29.299Z,94637.00
2023-05-10T04:37:29.325Z,94637.00
2023-05-10T04:38:29.387Z,94637.00
2023-05-10T04:39:29.441Z,94639.00
2023-05-10T04:40:29.504Z,94639.00
2023-05-10T04:41:29.623Z,94635.00
2023-05-10T04:42:29.628Z,94639.00
2023-05-10T04:43:29.685Z,94639.00
2023-05-10T04:44:29.757Z,94637.00
2023-05-10T04:45:29.842Z,94637.00
2023-05-10T04:46:29.981Z,94641.00
2023-05-10T04:47:29.961Z,94637.00
2023-05-10T04:48:30.004Z,94643.00
2023-05-10T04:49:30.077Z,94639.00
2023-05-10T04:50:30.134Z,94635.00
2023-05-10T04:51:30.200Z,94635.00
2023-05-10T04:52:30.297Z,94637.00
2023-05-10T04:53:30.328Z,94635.00
2023-05-10T04:54:30.404Z,94637.00
2023-05-10T04:55:30.460Z,94637.00
2023-05-10T04:56:30.514Z,94637.00
2023-05-10T04:57:30.594Z,94637.00
2023-05-10T04:58:30.644Z,94637.00
2023-05-10T04:59:30.707Z,94639.00
2023-05-10T05:00:30.764Z,94637.00
2023-05-10T05:01:30.898Z,94641.00
2023-05-10T05:02:30.981Z,94641.00
2023-05-10T05:03:31.040Z,94641.00
2023-05-10T05:04:31.055Z,94643.00
2023-05-10T05:05:31.072Z,94643.00
2023-05-10T05:06:31.137Z,94643.00
2023-05-10T05:07:31.187Z,94647.00
2023-05-10T05:08:31.250Z,94647.00
2023-05-10T05:09:31.322Z,94647.00
2023-05-10T05:10:31.384Z,94649.00
2023-05-10T05:11:31.451Z,94651.00
2023-05-10T05:12:31.507Z,94651.00
2023-05-10T05:13:31.599Z,94651.00
2023-05-10T05:14:31.627Z,94653.00
2023-05-10T05:15:31.688Z,94651.00
2023-05-10T05:16:31.882Z,94651.00
2023-05-10T05:17:31.886Z,94653.00
2023-05-10T05:18:31.873Z,94653.00
2023-05-10T05:19:32.383Z,94653.00
2023-05-10T05:20:32.386Z,94651.00
2023-05-10T05:21:32.052Z,94651.00
2023-05-10T05:22:32.113Z,94653.00
2023-05-10T05:23:32.191Z,94655.00
2023-05-10T05:24:32.238Z,94657.00
2023-05-10T05:25:32.305Z,94655.00
2023-05-10T05:26:32.367Z,94657.00
2023-05-10T05:27:32.423Z,94657.00
2023-05-10T05:28:32.473Z,94653.00
2023-05-10T05:29:32.524Z,94655.00
2023-05-10T05:30:32.583Z,94655.00
2023-05-10T05:31:32.695Z,94655.00
2023-05-10T05:32:32.782Z,94655.00
2023-05-10T05:33:32.776Z,94655.00
2023-05-10T05:34:32.815Z,94653.00
2023-05-10T05:35:32.878Z,94657.00
2023-05-10T05:36:32.931Z,94657.00
2023-05-10T05:37:32.982Z,94657.00
2023-05-10T05:38:33.039Z,94657.00
2023-05-10T05:39:33.094Z,94661.00
2023-05-10T05:40:33.138Z,94661.00
2023-05-10T05:41:33.203Z,94665.00
2023-05-10T05:42:33.261Z,94665.00
2023-05-10T05:43:33.665Z,94663.00
2023-05-10T05:44:33.383Z,94659.00
2023-05-10T05:45:33.451Z,94663.00
2023-05-10T05:46:33.474Z,94661.00
2023-05-10T05:47:33.564Z,94665.00
2023-05-10T05:48:33.595Z,94665.00
2023-05-10T05:49:33.912Z,94665.00
2023-05-10T05:50:33.886Z,94671.00
2023-05-10T05:51:33.727Z,94667.00
2023-05-10T05:52:33.783Z,94673.00
2023-05-10T05:53:33.830Z,94669.00
2023-05-10T05:54:33.898Z,94673.00
2023-05-10T05:55:33.920Z,94669.00
2023-05-10T05:56:33.966Z,94671.00
2023-05-10T05:57:33.995Z,94673.00
2023-05-10T05:58:34.412Z,94673.00
2023-05-10T05:59:34.389Z,94673.00
2023-05-10T06:00:34.130Z,94673.00
2023-05-10T06:01:34.144Z,94671.00
2023-05-10T06:02:34.317Z,94673.00
2023-05-10T06:03:34.245Z,94673.00
2023-05-10T06:04:34.446Z,94675.00
2023-05-10T06:05:34.275Z,94675.00
2023-05-10T06:06:34.271Z,94673.00
2023-05-10T06:07:34.394Z,94675.00
2023-05-10T06:08:34.446Z,94673.00
2023-05-10T06:09:34.340Z,94677.00
2023-05-10T06:10:34.372Z,94673.00
2023-05-10T06:11:34.374Z,94679.00
2023-05-10T06:12:34.393Z,94679.00
2023-05-10T06:13:34.543Z,94679.00
2023-05-10T06:14:35.370Z,94677.00
2023-05-10T06:15:34.376Z,94679.00
2023-05-10T06:16:34.457Z,94677.00
2023-05-10T06:17:34.399Z,94679.00
2023-05-10T06:18:34.365Z,94677.00
2023-05-10T06:19:34.438Z,94681.00
2023-05-10T06:20:34.378Z,94681.00
2023-05-10T06:21:34.400Z,94681.00
2023-05-10T06:22:34.402Z,94683.00
2023-05-10T06:23:34.393Z,94685.00
2023-05-10T06:24:34.904Z,94687.00
2023-05-10T06:25:34.448Z,94687.00
2023-05-10T06:26:34.475Z,94687.00
2023-05-10T06:27:34.497Z,94683.00
2023-05-10T06:28:34.514Z,94683.00
2023-05-10T06:29:34.908Z,94687.00
2023-05-10T06:30:34.600Z,94683.00
2023-05-10T06:31:34.705Z,94687.00
2023-05-10T06:32:34.743Z,94687.00
2023-05-10T06:33:34.742Z,94688.00
2023-05-10T06:34:34.905Z,94690.00
2023-05-10T06:35:34.882Z,94688.00
2023-05-10T06:36:35.958Z,94688.00
2023-05-10T06:37:35.028Z,94688.00
2023-05-10T06:38:35.406Z,94688.00
2023-05-10T06:39:35.143Z,94687.00
2023-05-10T06:40:35.213Z,94687.00
2023-05-10T06:41:35.280Z,94687.00
2023-05-10T06:42:35.328Z,94688.00
2023-05-10T06:43:35.408Z,94692.00
2023-05-10T06:44:35.920Z,94692.00
2023-05-10T06:45:35.517Z,94690.00
2023-05-10T06:46:35.592Z,94692.00
2023-05-10T06:47:38.698Z,94692.00
2023-05-10T06:48:35.634Z,94692.00
2023-05-10T06:49:35.919Z,94692.00
2023-05-10T06:50:35.931Z,94687.00
2023-05-10T06:51:35.638Z,94690.00
2023-05-10T06:52:35.643Z,94694.00
2023-05-10T06:53:35.682Z,94688.00
2023-05-10T06:54:35.925Z,94690.00
2023-05-10T06:55:35.644Z,94690.00
2023-05-10T06:56:36.647Z,94692.00
2023-05-10T06:57:35.645Z,94692.00
2023-05-10T06:58:51.539Z,94694.00
2023-05-10T06:59:35.745Z,94692.00
2023-05-10T07:00:38.898Z,94694.00
2023-05-10T07:01:35.756Z,94692.00
2023-05-10T07:02:35.677Z,94696.00
2023-05-10T07:03:35.658Z,94696.00
2023-05-10T07:04:35.960Z,94694.00
2023-05-10T07:05:35.878Z,94694.00
2023-05-10T07:06:35.662Z,94692.00
2023-05-10T07:07:35.686Z,94696.00
2023-05-10T07:08:35.668Z,94692.00
2023-05-10T07:09:36.005Z,94696.00
2023-05-10T07:10:35.665Z,94700.00
2023-05-10T07:11:36.679Z,94698.00
2023-05-10T07:12:35.808Z,94698.00
2023-05-10T07:13:35.721Z,94700.00
2023-05-10T07:14:35.680Z,94700.00
2023-05-10T07:15:35.685Z,94702.00
2023-05-10T07:16:35.928Z,94704.00
2023-05-10T07:17:35.790Z,94704.00
2023-05-10T07:18:35.801Z,94702.00
2023-05-10T07:19:35.732Z,94706.00
2023-05-10T07:20:35.724Z,94702.00
2023-05-10T07:21:35.792Z,94706.00
2023-05-10T07:22:35.739Z,94708.00
2023-05-10T07:23:35.754Z,94708.00
2023-05-10T07:24:35.764Z,94708.00
2023-05-10T07:25:35.823Z,94708.00
2023-05-10T07:26:35.927Z,94710.00
2023-05-10T07:27:35.788Z,94712.00
2023-05-10T07:28:35.945Z,94710.00
2023-05-10T07:29:35.786Z,94714.00
2023-05-10T07:30:35.824Z,94714.00
2023-05-10T07:31:35.811Z,94710.00
2023-05-10T07:32:36.044Z,94712.00
2023-05-10T07:33:35.827Z,94712.00
2023-05-10T07:34:35.963Z,94712.00
2023-05-10T07:35:35.853Z,94712.00
2023-05-10T07:36:35.865Z,94716.00
2023-05-10T07:37:35.879Z,94714.00
2023-05-10T07:38:35.853Z,94716.00
2023-05-10T07:39:36.079Z,94716.00
2023-05-10T07:40:35.916Z,94718.00
2023-05-10T07:41:36.221Z,94720.00
2023-05-10T07:42:35.925Z,94720.00
2023-05-10T07:43:35.917Z,94722.00
2023-05-10T07:44:35.971Z,94724.00
2023-05-10T07:45:35.947Z,94724.00
2023-05-10T07:46:35.955Z,94722.00
2023-05-10T07:47:35.958Z,94724.00
2023-05-10T07:48:35.970Z,94722.00
2023-05-10T07:49:35.960Z,94722.00
2023-05-10T07:50:35.965Z,94718.00
2023-05-10T07:51:35.967Z,94724.00
2023-05-10T07:52:36.388Z,94726.00
2023-05-10T07:53:35.996Z,94728.00
2023-05-10T07:54:36.454Z,94730.00
2023-05-10T07:55:36.012Z,94728.00
2023-05-10T07:56:39.255Z,94730.00
2023-05-10T07:57:36.027Z,94728.00
2023-05-10T07:58:37.059Z,94728.00
2023-05-10T07:59:36.459Z,94728.00
2023-05-10T08:00:36.106Z,94728.00
2023-05-10T08:01:36.448Z,94722.00
2023-05-10T08:02:36.301Z,94724.00
2023-05-10T08:03:36.233Z,94722.00
2023-05-10T08:04:36.228Z,94724.00
2023-05-10T08:05:36.118Z,94724.00
2023-05-10T08:06:36.441Z,94722.00
2023-05-10T08:07:36.131Z,94724.00
2023-05-10T08:08:36.132Z,94726.00
2023-05-10T08:09:36.145Z,94726.00
2023-05-10T08:10:36.156Z,94728.00
2023-05-10T08:11:36.164Z,94730.00
2023-05-10T08:12:36.185Z,94728.00
2023-05-10T08:13:36.166Z,94728.00
2023-05-10T08:14:36.166Z,94728.00
2023-05-10T08:15:36.245Z,94728.00
2023-05-10T08:16:36.180Z,94730.00
2023-05-10T08:17:36.211Z,94732.00
2023-05-10T08:18:36.202Z,94732.00
2023-05-10T08:19:36.213Z,94734.00
2023-05-10T08:20:36.184Z,94734.00
2023-05-10T08:21:36.189Z,94734.00
2023-05-10T08:22:36.210Z,94734.00
2023-05-10T08:23:36.201Z,94735.00
2023-05-10T08:24:36.209Z,94737.00
2023-05-10T08:25:36.969Z,94741.00
2023-05-10T08:26:36.182Z,94741.00
2023-05-10T08:27:36.245Z,94735.00
2023-05-10T08:28:36.212Z,94737.00
2023-05-10T08:29:48.937Z,94741.00
2023-05-10T08:30:36.195Z,94743.00
2023-05-10T08:31:36.262Z,94745.00
2023-05-10T08:32:36.229Z,94747.00
2023-05-10T08:33:36.201Z,94749.00
2023-05-10T08:34:36.207Z,94749.00
2023-05-10T08:35:36.445Z,94747.00
2023-05-10T08:36:36.209Z,94745.00
2023-05-10T08:37:36.244Z,94747.00
2023-05-10T08:38:36.228Z,94751.00
2023-05-10T08:39:36.481Z,94751.00
2023-05-10T08:40:43.703Z,94749.00
2023-05-10T08:41:36.502Z,94749.00
2023-05-10T08:42:37.218Z,94749.00
2023-05-10T08:43:36.246Z,94753.00
2023-05-10T08:44:36.290Z,94755.00
2023-05-10T08:45:37.531Z,94753.00
2023-05-10T08:46:36.324Z,94751.00
2023-05-10T08:47:36.311Z,94753.00
2023-05-10T08:48:36.261Z,94755.00
2023-05-10T08:49:36.268Z,94755.00
2023-05-10T08:50:36.452Z,94751.00
2023-05-10T08:51:36.277Z,94751.00
2023-05-10T08:52:36.301Z,94755.00
2023-05-10T08:53:36.328Z,94757.00
2023-05-10T08:54:36.499Z,94759.00
2023-05-10T08:55:36.371Z,94759.00
2023-05-10T08:56:36.399Z,94759.00
2023-05-10T08:57:36.421Z,94761.00
2023-05-10T08:58:36.457Z,94761.00
2023-05-10T08:59:36.466Z,94761.00
2023-05-10T09:00:36.523Z,94765.00
2023-05-10T09:01:36.505Z,94763.00
2023-05-10T09:02:36.556Z,94767.00
2023-05-10T09:03:36.577Z,94765.00
2023-05-10T09:04:37.062Z,94769.00
2023-05-10T09:05:36.894Z,94771.00
2023-05-10T09:06:36.615Z,94769.00
2023-05-10T09:07:36.664Z,94767.00
2023-05-10T09:08:36.671Z,94769.00
2023-05-10T09:09:36.970Z,94769.00
2023-05-10T09:10:36.713Z,94769.00
2023-05-10T09:11:36.743Z,94769.00
2023-05-10T09:12:36.791Z,94767.00
2023-05-10T09:13:36.788Z,94767.00
2023-05-10T09:14:37.433Z,94769.00
2023-05-10T09:15:36.967Z,94769.00
2023-05-10T09:16:36.936Z,94771.00
2023-05-10T09:17:36.919Z,94771.00
2023-05-10T09:18:36.936Z,94771.00
2023-05-10T09:19:36.936Z,94773.00
2023-05-10T09:20:37.465Z,94773.00
2023-05-10T09:21:37.092Z,94773.00
2023-05-10T09:22:37.035Z,94773.00
2023-05-10T09:23:37.041Z,94775.00
2023-05-10T09:24:37.067Z,94775.00
2023-05-10T09:25:37.471Z,94775.00
2023-05-10T09:26:37.189Z,94777.00
2023-05-10T09:27:37.162Z,94777.00
2023-05-10T09:28:37.167Z,94777.00
2023-05-10T09:29:37.494Z,94779.00
2023-05-10T09:30:37.306Z,94781.00
2023-05-10T09:31:38.326Z,94781.00
2023-05-10T09:32:37.608Z,94781.00
2023-05-10T09:33:40.549Z,94781.00
2023-05-10T09:34:37.469Z,94779.00
2023-05-10T09:35:38.473Z,94781.00
2023-05-10T09:36:37.437Z,94781.00
2023-05-10T09:37:37.370Z,94777.00
2023-05-10T09:38:37.476Z,94779.00
2023-05-10T09:39:37.394Z,94781.00
2023-05-10T09:40:37.397Z,94777.00
2023-05-10T09:41:37.400Z,94777.00
2023-05-10T09:42:37.398Z,94775.00
2023-05-10T09:43:37.476Z,94775.00
2023-05-10T09:44:37.475Z,94773.00
2023-05-10T09:45:39.117Z,94771.00
2023-05-10T09:46:37.670Z,94769.00
2023-05-10T09:47:37.553Z,94767.00
2023-05-10T09:48:37.594Z,94769.00
2023-05-10T09:49:37.979Z,94769.00
2023-05-10T09:50:37.585Z,94769.00
2023-05-10T09:51:37.662Z,94771.00
2023-05-10T09:52:37.568Z,94773.00
2023-05-10T09:53:37.980Z,94779.00
2023-05-10T09:54:37.644Z,94777.00
2023-05-10T09:55:37.591Z,94777.00
2023-05-10T09:56:38.015Z,94777.00
2023-05-10T09:57:37.589Z,94779.00
2023-05-10T09:58:37.586Z,94777.00
2023-05-10T09:59:37.599Z,94779.00
2023-05-10T10:00:37.990Z,94777.00
2023-05-10T10:01:37.798Z,94777.00
2023-05-10T10:02:37.665Z,94777.00
2023-05-10T10:03:37.618Z,94777.00
2023-05-10T10:04:37.781Z,94775.00
2023-05-10T10:05:37.997Z,94779.00
2023-05-10T10:06:37.631Z,94777.00
2023-05-10T10:07:37.644Z,94775.00
2023-05-10T10:08:37.636Z,94779.00
2023-05-10T10:09:37.637Z,94775.00
2023-05-10T10:10:37.998Z,94773.00
2023-05-10T10:11:37.650Z,94777.00
2023-05-10T10:12:37.655Z,94775.00
2023-05-10T10:13:37.929Z,94775.00
2023-05-10T10:14:37.671Z,94775.00
2023-05-10T10:15:38.016Z,94775.00
2023-05-10T10:16:43.688Z,94773.00
2023-05-10T10:17:37.785Z,94775.00
2023-05-10T10:18:38.046Z,94773.00
2023-05-10T10:19:38.293Z,94771.00
2023-05-10T10:20:38.028Z,94777.00
2023-05-10T10:21:37.758Z,94777.00
2023-05-10T10:22:37.761Z,94775.00
2023-05-10T10:23:37.781Z,94775.00
2023-05-10T10:24:37.759Z,94779.00
2023-05-10T10:25:37.996Z,94777.00
2023-05-10T10:26:38.782Z,94779.00
2023-05-10T10:27:37.769Z,94781.00
2023-05-10T10:28:37.771Z,94781.00
2023-05-10T10:29:37.785Z,94782.00
2023-05-10T10:30:37.995Z,94781.00
2023-05-10T10:31:37.883Z,94782.00
2023-05-10T10:32:37.756Z,94782.00
2023-05-10T10:33:37.810Z,94782.00
2023-05-10T10:34:37.773Z,94781.00
2023-05-10T10:35:37.998Z,94784.00
2023-05-10T10:36:37.834Z,94786.00
2023-05-10T10:37:37.760Z,94781.00
2023-05-10T10:38:37.770Z,94784.00
2023-05-10T10:39:38.086Z,94782.00
2023-05-10T10:40:37.778Z,94784.00
2023-05-10T10:41:38.013Z,94782.00
2023-05-10T10:42:37.839Z,94784.00
2023-05-10T10:43:38.878Z,94782.00
2023-05-10T10:44:37.908Z,94782.00
2023-05-10T10:45:37.927Z,94782.00
2023-05-10T10:46:37.976Z,94781.00
2023-05-10T10:47:38.015Z,94782.00
2023-05-10T10:48:37.997Z,94782.00
2023-05-10T10:49:38.043Z,94784.00
2023-05-10T10:50:38.322Z,94782.00
2023-05-10T10:51:38.506Z,94781.00
2023-05-10T10:52:38.186Z,94781.00
2023-05-10T10:53:38.129Z,94782.00
2023-05-10T10:54:38.153Z,94781.00
2023-05-10T10:55:38.172Z,94782.00
2023-05-10T10:56:38.229Z,94781.00
2023-05-10T10:57:38.514Z,94781.00
2023-05-10T10:58:38.229Z,94779.00
2023-05-10T10:59:38.243Z,94781.00
2023-05-10T11:00:38.293Z,94781.00
2023-05-10T11:01:38.790Z,94779.00
2023-05-10T11:02:38.299Z,94777.00
2023-05-10T11:03:38.317Z,94775.00
2023-05-10T11:04:38.621Z,94775.00
2023-05-10T11:05:38.349Z,94773.00
2023-05-10T11:06:38.385Z,94771.00
2023-05-10T11:07:38.400Z,94773.00
2023-05-10T11:08:38.454Z,94771.00
2023-05-10T11:09:38.518Z,94767.00
2023-05-10T11:10:38.453Z,94767.00
2023-05-10T11:11:38.508Z,94765.00
2023-05-10T11:12:38.510Z,94767.00
2023-05-10T11:13:38.546Z,94763.00
2023-05-10T11:14:38.571Z,94765.00
2023-05-10T11:15:38.605Z,94763.00
2023-05-10T11:16:39.137Z,94763.00
2023-05-10T11:17:38.704Z,94761.00
2023-05-10T11:18:38.753Z,94761.00
2023-05-10T11:19:38.753Z,94763.00
2023-05-10T11:20:38.799Z,94759.00
2023-05-10T11:21:38.843Z,94761.00
2023-05-10T11:22:38.895Z,94763.00
2023-05-10T11:23:38.946Z,94761.00
2023-05-10T11:24:39.089Z,94761.00
2023-05-10T11:25:39.052Z,94759.00
2023-05-10T11:26:39.105Z,94759.00
2023-05-10T11:27:39.153Z,94755.00
2023-05-10T11:28:39.197Z,94759.00
2023-05-10T11:29:39.252Z,94757.00
2023-05-10T11:30:39.336Z,94757.00
2023-05-10T11:31:39.518Z,94757.00
2023-05-10T11:32:39.457Z,94759.00
2023-05-10T11:33:39.488Z,94759.00
2023-05-10T11:34:39.564Z,94757.00
2023-05-10T11:35:41.756Z,94757.00
2023-05-10T11:36:39.616Z,94757.00
2023-05-10T11:37:39.613Z,94759.00
2023-05-10T11:38:39.651Z,94753.00
2023-05-10T11:39:39.603Z,94755.00
2023-05-10T11:40:39.641Z,94751.00
2023-05-10T11:41:41.053Z,94751.00
2023-05-10T11:42:40.018Z,94755.00
2023-05-10T11:43:39.606Z,94755.00
2023-05-10T11:44:39.621Z,94753.00
2023-05-10T11:45:39.619Z,94757.00